Time;durP1;ratioP1;P1;durP2;ratioP2;P2;SDS_P1;SDS_P2;PMS_P1;PMS_P2;Temp;Humidity;BMP_temperature;BMP_pressure;BME280_temperature;BME280_humidity;BME280_pressure;Samples;Min_cycle;Max_cycle;Signal;HPM_P1;HPM_P2
2021/03/31 00:01:07;;;;;;;26.03;13.40;;;5.30;99.90;;;;;;4141417;28;20321;-65
2021/03/31 00:03:16;;;;;;;23.17;12.37;;;5.30;99.90;;;;;;4141838;28;20284;-66
2021/03/31 00:05:17;;;;;;;25.73;12.07;;;5.20;99.90;;;;;;4141421;28;20736;-65
2021/03/31 00:07:18;;;;;;;21.93;12.40;;;5.30;99.90;;;;;;4141091;28;20325;-67
2021/03/31 00:09:19;;;;;;;24.00;11.83;;;5.30;99.90;;;;;;4139972;28;20878;-64
2021/03/31 00:11:21;;;;;;;21.70;12.47;;;5.30;99.90;;;;;;4140482;28;20291;-64
2021/03/31 00:13:23;;;;;;;21.90;12.00;;;5.20;99.90;;;;;;4142248;28;20756;-65
2021/03/31 00:15:24;;;;;;;18.93;10.87;;;5.30;99.90;;;;;;4140590;28;20349;-65
2021/03/31 00:17:26;;;;;;;19.37;10.93;;;5.30;99.90;;;;;;4141928;28;20267;-65
2021/03/31 00:19:27;;;;;;;17.20;10.30;;;5.30;99.90;;;;;;4140431;28;20279;-65
2021/03/31 00:21:28;;;;;;;14.00;9.13;;;5.30;99.90;;;;;;4142185;28;20272;-65
2021/03/31 00:23:30;;;;;;;14.47;9.20;;;5.30;99.90;;;;;;4139863;28;20763;-65
2021/03/31 00:25:31;;;;;;;19.60;9.30;;;5.30;99.90;;;;;;4141839;28;20747;-65
2021/03/31 00:27:33;;;;;;;15.40;9.47;;;5.40;99.90;;;;;;4140809;28;20275;-64
2021/03/31 00:29:34;;;;;;;18.87;8.60;;;5.40;99.90;;;;;;4141554;28;20334;-65
2021/03/31 00:31:35;;;;;;;14.17;8.83;;;5.40;99.90;;;;;;4141151;28;20690;-64
2021/03/31 00:33:37;;;;;;;16.30;8.33;;;5.40;99.90;;;;;;4153422;28;20329;-66
2021/03/31 00:35:38;;;;;;;13.60;8.53;;;5.40;99.90;;;;;;4156803;28;20767;-65
2021/03/31 00:37:39;;;;;;;16.73;8.67;;;5.40;99.90;;;;;;4141148;28;20325;-65
2021/03/31 00:39:41;;;;;;;17.00;8.00;;;5.40;99.90;;;;;;4141193;28;20279;-65
2021/03/31 00:41:42;;;;;;;15.43;9.23;;;5.40;99.90;;;;;;4140969;28;20816;-65
2021/03/31 00:43:43;;;;;;;18.23;8.27;;;5.40;99.90;;;;;;4142086;28;20302;-65
2021/03/31 00:45:44;;;;;;;14.53;7.97;;;5.40;99.90;;;;;;4140280;28;20278;-65
2021/03/31 00:47:45;;;;;;;19.87;8.93;;;5.40;99.90;;;;;;4141740;28;20271;-63
2021/03/31 00:49:46;;;;;;;11.50;7.73;;;5.40;99.90;;;;;;4140326;28;20286;-65
2021/03/31 00:51:48;;;;;;;13.83;8.10;;;5.40;99.90;;;;;;4141860;28;20864;-64
2021/03/31 00:53:50;;;;;;;15.77;8.10;;;5.40;99.90;;;;;;4139700;28;20779;-66
2021/03/31 00:55:51;;;;;;;12.47;7.23;;;5.30;99.90;;;;;;4141419;28;20755;-66
2021/03/31 00:57:52;;;;;;;12.33;7.63;;;5.30;99.90;;;;;;4140320;28;20387;-64
2021/03/31 00:59:53;;;;;;;12.83;8.13;;;5.30;99.90;;;;;;4139907;28;20267;-65
2021/03/31 01:01:55;;;;;;;13.47;6.87;;;5.30;99.90;;;;;;4140595;28;21339;-65
2021/03/31 01:03:57;;;;;;;13.60;8.27;;;5.30;99.90;;;;;;4140862;28;20427;-65
2021/03/31 01:05:58;;;;;;;16.87;7.87;;;5.30;99.90;;;;;;4140773;28;20294;-64
2021/03/31 01:08:00;;;;;;;13.60;7.50;;;5.30;99.90;;;;;;4140430;28;20260;-66
2021/03/31 01:10:01;;;;;;;16.77;8.17;;;5.30;99.90;;;;;;4140887;28;20275;-65
2021/03/31 01:12:08;;;;;;;13.90;7.73;;;5.20;99.90;;;;;;4140340;28;20271;-65
2021/03/31 01:14:27;;;;;;;14.07;7.03;;;5.20;99.90;;;;;;4141155;28;20263;-65
2021/03/31 01:17:03;;;;;;;11.60;7.13;;;5.20;99.90;;;;;;4140471;28;20337;-65
2021/03/31 01:19:25;;;;;;;17.37;8.30;;;5.20;99.90;;;;;;4147252;28;20267;-64
2021/03/31 01:22:04;;;;;;;13.27;7.23;;;5.20;99.90;;;;;;4157396;28;20266;-66
2021/03/31 01:24:46;;;;;;;15.53;7.37;;;5.20;99.90;;;;;;4156085;28;20278;-63
2021/03/31 01:26:57;;;;;;;14.33;7.53;;;5.20;99.90;;;;;;4146204;28;20291;-65
2021/03/31 01:31:40;;;;;;;16.70;10.10;;;5.10;99.90;;;;;;4565859;23;20356;-65
2021/03/31 01:34:03;;;;;;;16.53;9.77;;;5.10;99.90;;;;;;4156550;28;20895;-64
2021/03/31 01:36:04;;;;;;;20.10;9.00;;;5.00;99.90;;;;;;4164476;28;20275;-65
2021/03/31 01:38:07;;;;;;;19.53;9.20;;;4.90;99.90;;;;;;4163691;28;20262;-64
2021/03/31 01:40:12;;;;;;;18.43;9.93;;;4.90;99.90;;;;;;4164734;28;20324;-65
2021/03/31 01:42:14;;;;;;;17.40;9.90;;;4.80;99.90;;;;;;4161920;28;20270;-64
2021/03/31 01:44:18;;;;;;;17.27;10.80;;;4.80;99.90;;;;;;4159455;28;20278;-65
2021/03/31 01:46:23;;;;;;;23.27;10.73;;;4.80;99.90;;;;;;4158726;28;20667;-64
2021/03/31 01:48:27;;;;;;;21.77;11.60;;;4.70;99.90;;;;;;4160437;28;20282;-63
2021/03/31 01:50:31;;;;;;;22.67;11.90;;;4.70;99.90;;;;;;4158845;28;20584;-64
2021/03/31 01:52:34;;;;;;;21.43;11.30;;;4.60;99.90;;;;;;4159681;28;20348;-64
2021/03/31 01:54:39;;;;;;;18.67;10.33;;;4.50;99.90;;;;;;4159116;28;20298;-64
2021/03/31 01:56:41;;;;;;;22.53;10.90;;;4.40;99.90;;;;;;4159556;28;20337;-65
2021/03/31 01:58:43;;;;;;;19.73;9.87;;;4.40;99.90;;;;;;4143520;28;20251;-65
2021/03/31 02:00:45;;;;;;;15.23;9.27;;;4.40;99.90;;;;;;4148414;28;20275;-66
2021/03/31 02:02:53;;;;;;;15.77;9.00;;;4.40;99.90;;;;;;4160329;28;20368;-66
2021/03/31 02:04:55;;;;;;;14.83;8.87;;;4.40;99.90;;;;;;4159152;28;20255;-66
2021/03/31 02:06:57;;;;;;;14.57;8.73;;;4.50;99.90;;;;;;4160133;28;20883;-66
2021/03/31 02:08:59;;;;;;;15.17;9.10;;;4.50;99.90;;;;;;4158872;28;20263;-66
2021/03/31 02:11:00;;;;;;;15.70;7.83;;;4.50;99.90;;;;;;4159953;28;20313;-66
2021/03/31 02:13:05;;;;;;;11.20;7.80;;;4.50;99.90;;;;;;4158749;28;20336;-65
2021/03/31 02:15:08;;;;;;;15.33;7.67;;;4.40;99.90;;;;;;4159461;28;20345;-65
2021/03/31 02:17:14;;;;;;;18.03;8.47;;;4.50;99.90;;;;;;4158696;28;20278;-65
2021/03/31 02:19:19;;;;;;;13.60;8.30;;;4.50;99.90;;;;;;4159900;28;20800;-65
2021/03/31 02:21:22;;;;;;;15.30;7.93;;;4.40;99.90;;;;;;4158634;28;20290;-65
2021/03/31 02:23:24;;;;;;;16.03;7.83;;;4.40;99.90;;;;;;4159438;28;20321;-66
2021/03/31 02:25:25;;;;;;;15.07;8.87;;;4.50;99.90;;;;;;4158105;28;20843;-66
2021/03/31 02:27:26;;;;;;;16.83;8.43;;;4.50;99.90;;;;;;4159468;28;20674;-66
2021/03/31 02:29:28;;;;;;;15.67;7.73;;;4.50;99.90;;;;;;4158564;28;20320;-66
2021/03/31 02:31:30;;;;;;;15.93;8.57;;;4.50;99.90;;;;;;4158877;28;20344;-67
2021/03/31 02:33:33;;;;;;;13.07;7.90;;;4.50;99.90;;;;;;4159372;28;20309;-66
2021/03/31 02:35:36;;;;;;;12.23;7.30;;;4.50;99.90;;;;;;4158894;28;20356;-65
2021/03/31 02:37:39;;;;;;;18.90;8.40;;;4.60;99.90;;;;;;4158970;28;20325;-64
2021/03/31 02:39:42;;;;;;;15.33;8.27;;;4.60;99.90;;;;;;4158828;28;20340;-65
2021/03/31 02:41:48;;;;;;;18.07;8.37;;;4.60;99.90;;;;;;4159362;28;20267;-66
2021/03/31 02:43:51;;;;;;;15.50;7.70;;;4.60;99.90;;;;;;4158517;28;20333;-65
2021/03/31 02:45:55;;;;;;;12.27;7.33;;;4.60;99.90;;;;;;4158948;28;20344;-66
2021/03/31 02:48:00;;;;;;;19.83;8.97;;;4.60;99.90;;;;;;4157781;28;20329;-65
2021/03/31 02:50:03;;;;;;;16.63;9.47;;;4.60;99.90;;;;;;4158210;28;20368;-66
2021/03/31 02:52:06;;;;;;;14.20;7.80;;;4.60;99.90;;;;;;4158290;28;20832;-66
2021/03/31 02:54:09;;;;;;;18.63;9.03;;;4.60;99.90;;;;;;4159780;28;20271;-66
2021/03/31 02:56:12;;;;;;;24.73;12.03;;;4.60;99.90;;;;;;4158131;28;20329;-65
2021/03/31 02:58:14;;;;;;;20.80;10.77;;;4.60;99.90;;;;;;4159234;28;20278;-65
2021/03/31 03:00:16;;;;;;;23.97;11.40;;;4.50;99.90;;;;;;4157863;28;20321;-65
2021/03/31 03:02:19;;;;;;;26.77;11.33;;;4.40;99.90;;;;;;4159520;28;20336;-65
2021/03/31 03:04:21;;;;;;;21.50;10.80;;;4.30;99.90;;;;;;4159116;28;20308;-66
2021/03/31 03:06:24;;;;;;;20.97;10.63;;;4.30;99.90;;;;;;4159530;28;21116;-65
2021/03/31 03:08:26;;;;;;;21.90;10.90;;;4.20;99.90;;;;;;4157592;28;20685;-65
2021/03/31 03:10:27;;;;;;;23.17;10.57;;;4.20;99.90;;;;;;4157380;28;20774;-66
2021/03/31 03:12:29;;;;;;;19.80;10.50;;;4.10;99.90;;;;;;4156261;28;20713;-66
2021/03/31 03:14:32;;;;;;;19.43;10.03;;;4.10;99.90;;;;;;4158760;28;20324;-66
2021/03/31 03:16:33;;;;;;;18.27;10.67;;;4.10;99.90;;;;;;4157916;28;20352;-65
2021/03/31 03:18:34;;;;;;;22.93;10.20;;;4.10;99.90;;;;;;4158445;28;20271;-66
2021/03/31 03:20:35;;;;;;;19.37;9.60;;;4.10;99.90;;;;;;4158976;28;21185;-66
2021/03/31 03:22:39;;;;;;;19.87;10.03;;;4.10;99.90;;;;;;4157319;28;20341;-66
2021/03/31 03:24:46;;;;;;;19.37;10.47;;;4.10;99.90;;;;;;4158706;28;20297;-65
2021/03/31 03:26:47;;;;;;;17.37;9.37;;;4.20;99.90;;;;;;4156175;28;20294;-66
2021/03/31 03:28:49;;;;;;;16.30;9.17;;;4.20;99.90;;;;;;4157439;28;20333;-66
2021/03/31 03:30:52;;;;;;;17.03;9.07;;;4.20;99.90;;;;;;4157100;28;20274;-65
2021/03/31 03:32:54;;;;;;;20.10;9.60;;;4.20;99.90;;;;;;4159092;28;20321;-66
2021/03/31 03:34:55;;;;;;;20.03;10.20;;;4.20;99.90;;;;;;4157499;28;20371;-66
2021/03/31 03:36:57;;;;;;;16.57;9.40;;;4.20;99.90;;;;;;4158755;28;20368;-66
2021/03/31 03:38:58;;;;;;;21.60;9.47;;;4.20;99.90;;;;;;4157847;28;20274;-66
2021/03/31 03:41:03;;;;;;;16.20;8.70;;;4.20;99.90;;;;;;4158600;28;20279;-65
2021/03/31 03:43:06;;;;;;;14.50;7.83;;;4.20;99.90;;;;;;4157003;28;20283;-66
2021/03/31 03:45:08;;;;;;;18.03;8.50;;;4.30;99.90;;;;;;4157458;28;20279;-66
2021/03/31 03:47:10;;;;;;;16.43;7.80;;;4.30;99.90;;;;;;4157322;28;20259;-67
2021/03/31 03:49:11;;;;;;;14.47;8.17;;;4.30;99.90;;;;;;4158151;28;20337;-67
2021/03/31 03:51:12;;;;;;;18.30;7.23;;;4.30;99.90;;;;;;4157170;28;20316;-66
2021/03/31 03:53:14;;;;;;;18.13;9.20;;;4.30;99.90;;;;;;4157356;28;20657;-67
2021/03/31 03:55:19;;;;;;;25.90;10.53;;;4.30;99.90;;;;;;4157592;28;20306;-65
2021/03/31 03:57:24;;;;;;;22.83;9.50;;;4.30;99.90;;;;;;4157067;28;20682;-65
2021/03/31 03:59:28;;;;;;;18.17;10.00;;;4.20;99.90;;;;;;4157520;28;20271;-64
2021/03/31 04:01:34;;;;;;;16.53;8.37;;;4.20;99.90;;;;;;4156138;28;20326;-65
2021/03/31 04:03:35;;;;;;;14.23;7.13;;;4.20;99.90;;;;;;4158408;28;20658;-65
2021/03/31 04:05:36;;;;;;;13.37;7.50;;;4.30;99.90;;;;;;4157011;28;20412;-64
2021/03/31 04:07:37;;;;;;;14.87;7.03;;;4.30;99.90;;;;;;4157633;28;20768;-64
2021/03/31 04:09:44;;;;;;;15.37;7.87;;;4.40;99.90;;;;;;4156041;28;20661;-65
2021/03/31 04:11:47;;;;;;;16.67;7.33;;;4.40;99.90;;;;;;4157728;28;20278;-64
2021/03/31 04:13:48;;;;;;;11.63;6.73;;;4.40;99.90;;;;;;4156607;28;20263;-62
2021/03/31 04:15:58;;;;;;;11.97;6.47;;;4.40;99.90;;;;;;4156286;28;20282;-60
2021/03/31 04:18:01;;;;;;;13.60;6.30;;;4.40;99.90;;;;;;4156365;28;20671;-66
2021/03/31 04:20:04;;;;;;;15.50;8.00;;;4.40;99.90;;;;;;4157230;28;20092;-62
2021/03/31 04:22:06;;;;;;;12.87;7.20;;;4.40;99.90;;;;;;4156472;28;20366;-64
2021/03/31 04:24:11;;;;;;;17.87;6.23;;;4.40;99.90;;;;;;4157311;28;20665;-61
2021/03/31 04:26:13;;;;;;;14.23;7.60;;;4.40;99.90;;;;;;4156034;28;20667;-63
2021/03/31 04:28:16;;;;;;;15.63;7.47;;;4.30;99.90;;;;;;4157077;28;20271;-63
2021/03/31 04:30:20;;;;;;;12.20;6.97;;;4.30;99.90;;;;;;4156758;28;20263;-63
2021/03/31 04:32:23;;;;;;;20.37;7.57;;;4.40;99.90;;;;;;4157228;28;20290;-64
2021/03/31 04:34:25;;;;;;;15.93;7.13;;;4.40;99.90;;;;;;4157053;28;20815;-63
2021/03/31 04:36:29;;;;;;;17.63;7.73;;;4.40;99.90;;;;;;4155789;28;20310;-63
2021/03/31 04:38:31;;;;;;;12.90;6.97;;;4.40;99.90;;;;;;4157150;28;20274;-63
2021/03/31 04:40:56;;;;;;;13.77;7.37;;;4.50;99.90;;;;;;4155257;28;20263;-63
2021/03/31 04:42:57;;;;;;;11.00;6.60;;;4.50;99.90;;;;;;4155579;28;20348;-63
2021/03/31 04:44:58;;;;;;;24.23;7.30;;;4.60;99.90;;;;;;4156221;28;20607;-64
2021/03/31 04:47:01;;;;;;;16.53;7.50;;;4.60;99.90;;;;;;4157014;28;20270;-64
2021/03/31 04:49:02;;;;;;;12.50;7.03;;;4.70;99.90;;;;;;4156227;28;20274;-65
2021/03/31 04:51:05;;;;;;;13.37;6.13;;;4.80;99.90;;;;;;4157428;28;20267;-64
2021/03/31 04:53:06;;;;;;;12.47;6.70;;;4.80;99.90;;;;;;4155466;28;20267;-63
2021/03/31 04:55:07;;;;;;;13.40;7.20;;;4.80;99.90;;;;;;4155993;28;20286;-67
2021/03/31 04:57:08;;;;;;;13.20;7.27;;;4.80;99.90;;;;;;4155559;28;20820;-63
2021/03/31 04:59:09;;;;;;;14.77;6.77;;;4.90;99.90;;;;;;4157250;28;20762;-69
2021/03/31 05:01:12;;;;;;;19.77;7.50;;;5.00;99.90;;;;;;4155625;28;20341;-65
2021/03/31 05:03:13;;;;;;;14.13;6.97;;;5.10;99.90;;;;;;4158024;28;20332;-65
2021/03/31 05:05:15;;;;;;;14.37;7.50;;;5.20;99.90;;;;;;4155586;28;20286;-65
2021/03/31 05:07:16;;;;;;;11.10;5.90;;;5.20;99.90;;;;;;4156294;28;20271;-66
2021/03/31 05:09:17;;;;;;;12.63;7.20;;;5.40;99.90;;;;;;4157529;28;20328;-65
2021/03/31 05:11:19;;;;;;;14.07;7.10;;;5.40;99.90;;;;;;4162068;28;20328;-65
2021/03/31 05:13:20;;;;;;;18.30;7.40;;;5.50;99.90;;;;;;4161687;28;20259;-66
2021/03/31 05:15:21;;;;;;;17.27;7.10;;;5.60;99.90;;;;;;4161199;28;20310;-65
2021/03/31 05:17:23;;;;;;;19.83;7.67;;;5.70;99.90;;;;;;4161936;28;20278;-67
2021/03/31 05:19:24;;;;;;;11.83;6.37;;;5.80;99.90;;;;;;4160723;28;20267;-67
2021/03/31 05:21:25;;;;;;;20.77;7.00;;;5.90;99.90;;;;;;4162461;28;20891;-67
2021/03/31 05:23:26;;;;;;;22.77;7.57;;;6.00;99.90;;;;;;4161089;28;20274;-64
2021/03/31 05:25:27;;;;;;;20.97;7.47;;;6.10;99.90;;;;;;4162787;28;20336;-65
2021/03/31 05:27:29;;;;;;;18.27;7.67;;;6.10;99.90;;;;;;4160763;28;20271;-65
2021/03/31 05:29:31;;;;;;;15.77;7.53;;;6.10;99.90;;;;;;4162377;28;20772;-65
2021/03/31 05:31:32;;;;;;;16.10;6.77;;;6.20;99.90;;;;;;4156044;28;20306;-64
2021/03/31 05:33:33;;;;;;;17.83;7.30;;;6.20;99.90;;;;;;4160204;28;20344;-64
2021/03/31 05:35:34;;;;;;;14.30;7.13;;;6.30;99.90;;;;;;4159377;28;20793;-63
2021/03/31 05:37:36;;;;;;;17.10;7.53;;;6.40;99.90;;;;;;4162117;28;20474;-65
2021/03/31 05:39:37;;;;;;;18.00;7.73;;;6.40;99.90;;;;;;4160544;28;20689;-64
2021/03/31 05:41:38;;;;;;;13.90;6.47;;;6.40;99.90;;;;;;4161699;28;20271;-65
2021/03/31 05:43:40;;;;;;;15.30;7.23;;;6.60;99.90;;;;;;4160590;28;20316;-63
2021/03/31 05:45:43;;;;;;;15.83;7.00;;;6.70;99.90;;;;;;4159282;28;20344;-69
2021/03/31 05:47:45;;;;;;;29.10;11.43;;;6.80;99.90;;;;;;4160875;28;20045;-65
2021/03/31 05:49:46;;;;;;;16.47;9.07;;;6.90;99.90;;;;;;4157283;28;20267;-64
2021/03/31 05:51:47;;;;;;;18.83;7.30;;;7.00;99.90;;;;;;4161407;28;20029;-65
2021/03/31 05:53:48;;;;;;;13.67;7.30;;;7.20;99.90;;;;;;4159153;28;20469;-64
2021/03/31 05:55:49;;;;;;;17.97;8.80;;;7.30;99.90;;;;;;4160982;28;20037;-64
2021/03/31 05:57:50;;;;;;;42.43;17.60;;;7.40;99.90;;;;;;4160505;28;20021;-66
2021/03/31 05:59:52;;;;;;;39.97;17.97;;;7.30;99.90;;;;;;4160859;28;20029;-65
2021/03/31 06:01:54;;;;;;;58.13;21.60;;;7.00;99.90;;;;;;4160703;28;20029;-66
2021/03/31 06:03:58;;;;;;;50.20;23.43;;;6.80;99.90;;;;;;4162854;28;20095;-65
2021/03/31 06:06:00;;;;;;;44.07;19.47;;;6.80;99.90;;;;;;4160802;28;20030;-65
2021/03/31 06:08:01;;;;;;;51.23;19.17;;;6.70;99.90;;;;;;4167142;28;20036;-64
2021/03/31 06:10:21;;;;;;;36.77;16.70;;;6.70;99.90;;;;;;4177361;28;20032;-64
2021/03/31 06:12:29;;;;;;;38.97;17.30;;;6.70;99.90;;;;;;4178651;28;20033;-65
2021/03/31 06:14:37;;;;;;;37.23;16.63;;;6.80;99.90;;;;;;4177445;28;20429;-64
2021/03/31 06:16:44;;;;;;;36.13;16.60;;;6.90;99.90;;;;;;4163286;28;20432;-66
2021/03/31 06:18:45;;;;;;;35.37;15.77;;;7.10;99.90;;;;;;4160656;28;20167;-66
2021/03/31 06:20:56;;;;;;;49.03;17.50;;;7.30;99.90;;;;;;4160602;28;20799;-63
2021/03/31 06:23:08;;;;;;;40.67;16.93;;;7.30;99.90;;;;;;4158591;28;20079;-64
2021/03/31 06:25:22;;;;;;;45.37;16.83;;;7.40;99.90;;;;;;4158876;28;20033;-64
2021/03/31 06:27:28;;;;;;;34.57;15.43;;;7.40;99.90;;;;;;4158142;28;20088;-65
2021/03/31 06:29:37;;;;;;;34.00;14.87;;;7.50;99.90;;;;;;4158713;28;20370;-65
2021/03/31 06:31:47;;;;;;;37.83;15.97;;;7.70;99.90;;;;;;4157225;28;20058;-64
2021/03/31 06:33:49;;;;;;;37.05;15.90;;;7.90;99.90;;;;;;4158245;28;20103;-64
2021/03/31 06:35:51;;;;;;;47.50;16.70;;;7.90;99.90;;;;;;4146077;28;20386;-65
2021/03/31 06:38:08;;;;;;;31.50;13.80;;;8.00;99.90;;;;;;4158034;28;20391;-65
2021/03/31 06:40:32;;;;;;;38.40;14.83;;;8.10;99.90;;;;;;4156633;28;20041;-66
2021/03/31 06:42:46;;;;;;;35.37;14.43;;;8.20;99.90;;;;;;4155243;28;20033;-67
2021/03/31 06:47:02;;;;;;;31.30;13.60;;;8.30;99.90;;;;;;4158897;28;20490;-67
2021/03/31 06:49:04;;;;;;;23.60;12.90;;;8.30;99.90;;;;;;4157798;28;20083;-66
2021/03/31 06:51:22;;;;;;;29.13;12.00;;;8.40;99.90;;;;;;4153241;28;20397;-64
2021/03/31 06:53:31;;;;;;;27.13;12.57;;;8.60;99.90;;;;;;4157013;28;20551;-64
2021/03/31 06:55:33;;;;;;;31.77;13.87;;;8.80;99.90;;;;;;4157256;28;20784;-66
2021/03/31 06:57:35;;;;;;;32.83;14.83;;;8.90;99.90;;;;;;4156766;28;20030;-64
2021/03/31 06:59:36;;;;;;;36.90;15.50;;;9.00;99.90;;;;;;4158438;28;20115;-66
2021/03/31 07:01:39;;;;;;;32.43;14.83;;;9.10;99.90;;;;;;4157353;28;20103;-65
2021/03/31 07:03:41;;;;;;;30.60;14.20;;;9.10;99.90;;;;;;4158141;28;20856;-65
2021/03/31 07:05:42;;;;;;;24.87;13.40;;;9.20;99.90;;;;;;4158015;28;20037;-65
2021/03/31 07:07:43;;;;;;;29.37;13.83;;;9.20;99.90;;;;;;4157261;28;20053;-63
2021/03/31 07:09:44;;;;;;;28.40;12.97;;;9.10;99.90;;;;;;4155801;28;20042;-65
2021/03/31 07:11:46;;;;;;;23.73;14.27;;;9.10;99.90;;;;;;4156179;28;20026;-64
2021/03/31 07:13:48;;;;;;;34.50;13.57;;;9.20;99.90;;;;;;4158561;28;20564;-63
2021/03/31 07:15:49;;;;;;;41.60;15.87;;;9.20;99.90;;;;;;4165767;28;20041;-64
2021/03/31 07:17:56;;;;;;;45.63;18.00;;;9.20;99.90;;;;;;4158075;28;20034;-64
2021/03/31 07:19:58;;;;;;;48.10;19.33;;;9.10;99.90;;;;;;4156447;28;20824;-64
2021/03/31 07:22:00;;;;;;;46.40;19.47;;;9.10;99.90;;;;;;4157095;28;20021;-69
2021/03/31 07:24:01;;;;;;;65.63;22.70;;;9.10;99.90;;;;;;4158589;28;20044;-65
2021/03/31 07:26:02;;;;;;;69.00;23.23;;;9.10;99.90;;;;;;4157148;28;20041;-62
2021/03/31 07:28:05;;;;;;;59.43;25.33;;;9.20;99.90;;;;;;4156779;28;20095;-69
2021/03/31 07:30:12;;;;;;;59.17;24.00;;;9.30;99.90;;;;;;4158099;28;20136;-66
2021/03/31 07:32:13;;;;;;;32.53;17.80;;;9.40;99.90;;;;;;4156559;28;20057;-67
2021/03/31 07:34:38;;;;;;;39.37;18.57;;;9.50;99.90;;;;;;4158350;28;20095;-67
2021/03/31 07:36:44;;;;;;;31.37;16.27;;;9.50;99.90;;;;;;4157007;28;20088;-65
2021/03/31 07:38:48;;;;;;;35.30;15.17;;;9.60;99.90;;;;;;4158709;28;20489;-66
2021/03/31 07:40:51;;;;;;;33.20;15.10;;;9.80;99.90;;;;;;4155919;28;20087;-62
2021/03/31 07:42:55;;;;;;;31.97;15.57;;;9.90;99.90;;;;;;4154595;28;20504;-67
2021/03/31 07:45:00;;;;;;;30.87;15.10;;;10.30;99.90;;;;;;4156633;28;20087;-64
2021/03/31 07:47:04;;;;;;;28.60;13.50;;;10.60;99.90;;;;;;4157325;28;20384;-65
2021/03/31 07:49:06;;;;;;;29.97;13.77;;;10.50;99.90;;;;;;4156827;28;20029;-67
2021/03/31 07:51:22;;;;;;;23.40;12.47;;;10.60;99.90;;;;;;4157056;28;20079;-64
2021/03/31 07:53:24;;;;;;;41.77;13.33;;;10.60;99.90;;;;;;4155889;28;20080;-64
2021/03/31 07:55:42;;;;;;;33.67;13.10;;;10.70;99.90;;;;;;4156606;28;20041;-68
2021/03/31 07:57:43;;;;;;;28.93;13.93;;;10.70;99.90;;;;;;4170666;28;20511;-70
2021/03/31 07:59:44;;;;;;;30.37;12.93;;;10.60;99.90;;;;;;4163621;28;20085;-67
2021/03/31 08:01:54;;;;;;;29.47;14.17;;;10.50;99.90;;;;;;4156139;28;20045;-63
2021/03/31 08:03:56;;;;;;;30.15;14.43;;;10.60;99.90;;;;;;4157451;28;20091;-67
2021/03/31 08:06:09;;;;;;;31.60;14.37;;;10.60;99.60;;;;;;4157156;28;20084;-68
2021/03/31 08:08:14;;;;;;;31.50;13.47;;;10.70;99.50;;;;;;4155775;28;20083;-66
2021/03/31 08:10:32;;;;;;;23.60;12.67;;;10.70;99.60;;;;;;4157194;28;20543;-65
2021/03/31 08:12:34;;;;;;;25.70;12.60;;;10.90;99.00;;;;;;4156461;28;20543;-66
2021/03/31 08:14:43;;;;;;;30.17;14.70;;;11.00;98.90;;;;;;4156761;28;20029;-65
2021/03/31 08:16:50;;;;;;;33.33;15.33;;;11.20;98.70;;;;;;4156149;28;20037;-66
2021/03/31 08:18:52;;;;;;;33.13;12.87;;;11.40;98.40;;;;;;4142835;28;20049;-66
2021/03/31 08:20:55;;;;;;;21.63;12.80;;;11.30;97.70;;;;;;4155884;28;20577;-65
2021/03/31 08:22:56;;;;;;;24.83;12.60;;;11.30;97.80;;;;;;4155644;28;20075;-63
2021/03/31 08:24:59;;;;;;;26.70;12.93;;;11.40;97.70;;;;;;4155738;28;20477;-64
2021/03/31 08:27:00;;;;;;;26.73;13.07;;;11.40;97.40;;;;;;4157436;28;20037;-67
2021/03/31 08:29:04;;;;;;;34.70;12.47;;;11.40;97.40;;;;;;4156102;28;20087;-66
2021/03/31 08:31:27;;;;;;;23.50;12.17;;;11.50;97.30;;;;;;4157043;28;20107;-66
2021/03/31 08:33:28;;;;;;;19.87;11.13;;;11.50;97.00;;;;;;4156429;28;20083;-64
2021/03/31 08:35:31;;;;;;;22.63;12.43;;;11.50;97.10;;;;;;4157032;28;20025;-70
2021/03/31 08:37:32;;;;;;;23.77;11.93;;;11.70;96.90;;;;;;4155825;28;20063;-65
2021/03/31 08:39:34;;;;;;;19.63;10.77;;;11.80;96.50;;;;;;4157204;28;20049;-65
2021/03/31 08:41:39;;;;;;;19.90;9.87;;;12.00;96.20;;;;;;4155559;28;20107;-66
2021/03/31 08:43:40;;;;;;;16.10;10.23;;;12.10;96.00;;;;;;4156962;28;20087;-63
2021/03/31 08:45:42;;;;;;;18.10;10.33;;;12.10;96.00;;;;;;4155813;28;20725;-64
2021/03/31 08:47:44;;;;;;;15.70;9.77;;;12.10;95.90;;;;;;4154858;28;20041;-63
2021/03/31 08:50:07;;;;;;;18.83;10.00;;;12.30;95.30;;;;;;4156200;28;20109;-64
2021/03/31 08:52:11;;;;;;;16.10;8.70;;;12.40;95.10;;;;;;4157155;28;20033;-66
2021/03/31 08:54:12;;;;;;;15.03;9.00;;;12.70;94.50;;;;;;4156039;28;20179;-67
2021/03/31 08:56:23;;;;;;;18.30;9.43;;;12.80;93.40;;;;;;4156713;28;20056;-62
2021/03/31 08:58:26;;;;;;;16.40;9.43;;;12.90;92.80;;;;;;4154552;28;20041;-66
2021/03/31 09:00:27;;;;;;;18.17;9.60;;;12.90;92.60;;;;;;4155556;28;20099;-67
2021/03/31 09:02:43;;;;;;;17.90;10.23;;;12.90;92.10;;;;;;4156207;28;20017;-65
2021/03/31 09:04:44;;;;;;;17.40;9.10;;;13.00;91.80;;;;;;4156188;28;20037;-62
2021/03/31 09:06:45;;;;;;;18.43;8.83;;;13.10;91.90;;;;;;4156189;28;20065;-67
2021/03/31 09:08:47;;;;;;;20.70;8.87;;;13.20;91.60;;;;;;4155874;28;20037;-64
2021/03/31 09:11:04;;;;;;;13.80;8.70;;;13.50;91.30;;;;;;4156664;28;20025;-64
2021/03/31 09:13:05;;;;;;;15.73;8.90;;;13.90;90.60;;;;;;4160639;28;20033;-66
2021/03/31 09:15:07;;;;;;;17.23;9.43;;;14.20;90.20;;;;;;4160254;28;20095;-65
2021/03/31 09:17:12;;;;;;;21.00;9.43;;;14.40;89.40;;;;;;4155303;28;20065;-65
2021/03/31 09:19:13;;;;;;;15.97;9.60;;;14.70;88.00;;;;;;4156565;28;20080;-64
2021/03/31 09:21:14;;;;;;;17.57;10.03;;;14.80;86.30;;;;;;4155455;28;20103;-64
2021/03/31 09:23:23;;;;;;;14.40;8.93;;;14.80;85.10;;;;;;4156759;28;20046;-66
2021/03/31 09:25:24;;;;;;;14.07;9.13;;;14.70;84.80;;;;;;4170102;28;20041;-66
2021/03/31 09:27:28;;;;;;;17.27;10.00;;;14.70;85.00;;;;;;4173384;28;20057;-65
2021/03/31 09:29:29;;;;;;;23.17;10.00;;;14.90;84.60;;;;;;4171920;28;20098;-66
2021/03/31 09:31:32;;;;;;;15.57;9.57;;;15.00;83.70;;;;;;4167656;28;20067;-69
2021/03/31 09:33:34;;;;;;;17.33;9.73;;;15.10;83.00;;;;;;4153901;28;20048;-64
2021/03/31 09:35:35;;;;;;;18.80;11.00;;;15.10;82.70;;;;;;4157110;28;20037;-65
2021/03/31 09:37:48;;;;;;;19.17;10.90;;;15.10;82.20;;;;;;4154902;28;20053;-66
2021/03/31 09:39:56;;;;;;;22.30;10.93;;;15.30;81.60;;;;;;4156509;28;20033;-70
2021/03/31 09:41:58;;;;;;;19.93;11.50;;;15.40;81.80;;;;;;4155636;28;20103;-69
2021/03/31 09:43:59;;;;;;;19.93;10.20;;;15.60;80.80;;;;;;4155198;28;20041;-67
2021/03/31 09:46:01;;;;;;;19.40;11.40;;;15.50;79.90;;;;;;4154111;28;20151;-66
2021/03/31 09:48:04;;;;;;;23.27;10.47;;;15.40;79.90;;;;;;4155751;28;20034;-68
2021/03/31 09:50:08;;;;;;;26.00;11.53;;;15.20;79.40;;;;;;4155860;28;20489;-69
2021/03/31 09:52:15;;;;;;;19.87;11.47;;;15.10;80.00;;;;;;4154976;28;20026;-65
2021/03/31 09:54:16;;;;;;;21.97;11.27;;;15.00;80.30;;;;;;4155368;28;20639;-65
2021/03/31 09:56:19;;;;;;;22.30;11.93;;;15.00;80.20;;;;;;4155136;28;20037;-64
2021/03/31 09:58:25;;;;;;;17.87;11.80;;;15.00;80.30;;;;;;4159063;28;20455;-67
2021/03/31 10:00:27;;;;;;;24.00;12.33;;;15.10;80.40;;;;;;4158337;28;20107;-66
2021/03/31 10:02:29;;;;;;;21.13;12.50;;;15.30;79.90;;;;;;4169812;28;20090;-67
2021/03/31 10:04:35;;;;;;;16.80;11.67;;;15.40;79.90;;;;;;4174651;28;20566;-66
2021/03/31 10:06:37;;;;;;;26.20;12.90;;;15.40;79.70;;;;;;4158314;28;20039;-66
2021/03/31 10:08:40;;;;;;;28.17;12.67;;;15.70;79.20;;;;;;4157920;28;20045;-65
2021/03/31 10:10:59;;;;;;;25.90;12.13;;;15.90;78.70;;;;;;4158611;28;20524;-66
2021/03/31 10:13:04;;;;;;;26.40;13.05;;;16.10;77.40;;;;;;4157529;28;20059;-67
2021/03/31 10:15:12;;;;;;;25.35;12.73;;;16.40;77.90;;;;;;4159062;28;20041;-67
2021/03/31 10:17:16;;;;;;;20.60;12.97;;;16.50;76.70;;;;;;4156679;28;20071;-65
2021/03/31 10:19:18;;;;;;;22.33;13.15;;;16.50;76.30;;;;;;4158687;28;20091;-66
2021/03/31 10:21:30;;;;;;;19.40;12.48;;;16.30;76.70;;;;;;4157983;28;20037;-65
2021/03/31 10:23:36;;;;;;;24.55;12.35;;;16.20;76.90;;;;;;4159560;28;20033;-66
2021/03/31 10:25:37;;;;;;;23.30;12.18;;;16.20;77.00;;;;;;4157688;28;20103;-66
2021/03/31 10:27:46;;;;;;;24.13;12.57;;;16.20;77.30;;;;;;4159103;28;20029;-65
2021/03/31 10:29:52;;;;;;;24.88;13.05;;;16.10;77.20;;;;;;4157247;28;20146;-67
2021/03/31 10:31:54;;;;;;;24.80;12.93;;;16.00;77.50;;;;;;4158442;28;20045;-67
2021/03/31 10:33:56;;;;;;;21.92;13.73;;;15.90;78.00;;;;;;4157265;28;20049;-67
2021/03/31 10:35:59;;;;;;;22.55;12.23;;;15.80;78.60;;;;;;4158997;28;20084;-67
2021/03/31 10:38:04;;;;;;;20.45;12.52;;;15.60;78.80;;;;;;4157280;28;20477;-65
2021/03/31 10:40:53;;;;;;;22.67;13.15;;;15.60;79.30;;;;;;4157883;28;20147;-64
2021/03/31 10:49:40;;;;;;;21.42;11.93;;;15.40;79.60;;;;;;4158342;28;20021;-66
2021/03/31 10:51:52;;;;;;;17.90;11.10;;;15.30;79.80;;;;;;4157164;28;20037;-63